sensor_id;sensor_type;location;lat;lon;timestamp;pressure;altitude;pressure_sealevel;temperature;humidity
75460;BME280;64039;53.060;9.342;2024-02-26T00:00:26;99970.28;;;1.50;100.00
75460;BME280;64039;53.060;9.342;2024-02-26T00:02:51;99970.38;;;1.53;100.00
75460;BME280;64039;53.060;9.342;2024-02-26T00:05:17;99967.50;;;1.45;100.00
75460;BME280;64039;53.060;9.342;2024-02-26T00:07:42;99967.50;;;1.45;100.00
75460;BME280;64039;53.060;9.342;2024-02-26T00:10:08;99969.50;;;1.33;100.00
75460;BME280;64039;53.060;9.342;2024-02-26T00:12:34;99968.28;;;1.24;100.00
75460;BME280;64039;53.060;9.342;2024-02-26T00:14:59;99965.41;;;1.17;100.00
75460;BME280;64039;53.060;9.342;2024-02-26T00:17:25;99964.06;;;1.07;100.00
75460;BME280;64039;53.060;9.342;2024-02-26T00:19:50;99970.31;;;1.12;100.00
75460;BME280;64039;53.060;9.342;2024-02-26T00:22:15;99964.44;;;1.15;100.00
75460;BME280;64039;53.060;9.342;2024-02-26T00:24:41;99968.22;;;1.23;100.00
75460;BME280;64039;53.060;9.342;2024-02-26T00:27:06;99968.34;;;1.26;100.00
75460;BME280;64039;53.060;9.342;2024-02-26T00:29:32;99968.16;;;1.21;100.00
75460;BME280;64039;53.060;9.342;2024-02-26T00:31:58;99962.41;;;1.27;100.00
75460;BME280;64039;53.060;9.342;2024-02-26T00:34:24;99962.19;;;1.22;100.00
75460;BME280;64039;53.060;9.342;2024-02-26T00:36:49;99961.94;;;1.16;100.00
75460;BME280;64039;53.060;9.342;2024-02-26T00:39:15;99959.91;;;1.09;100.00
75460;BME280;64039;53.060;9.342;2024-02-26T00:41:40;99959.03;;;1.08;100.00
75460;BME280;64039;53.060;9.342;2024-02-26T00:44:06;99966.78;;;1.10;100.00
75460;BME280;64039;53.060;9.342;2024-02-26T00:46:32;99958.41;;;0.94;100.00
75460;BME280;64039;53.060;9.342;2024-02-26T00:48:57;99956.28;;;1.04;100.00
75460;BME280;64039;53.060;9.342;2024-02-26T00:51:23;99956.06;;;1.19;100.00
75460;BME280;64039;53.060;9.342;2024-02-26T00:53:48;99951.41;;;1.10;100.00
75460;BME280;64039;53.060;9.342;2024-02-26T00:56:14;99954.63;;;1.06;100.00
75460;BME280;64039;53.060;9.342;2024-02-26T00:58:39;99952.75;;;1.02;100.00
75460;BME280;64039;53.060;9.342;2024-02-26T01:01:04;99954.78;;;1.09;100.00
75460;BME280;64039;53.060;9.342;2024-02-26T01:03:30;99947.31;;;0.76;100.00
75460;BME280;64039;53.060;9.342;2024-02-26T01:05:55;99943.78;;;0.74;100.00
75460;BME280;64039;53.060;9.342;2024-02-26T01:08:20;99935.13;;;0.72;100.00
75460;BME280;64039;53.060;9.342;2024-02-26T01:10:46;99930.16;;;0.75;100.00
75460;BME280;64039;53.060;9.342;2024-02-26T01:13:11;99935.22;;;0.73;100.00
75460;BME280;64039;53.060;9.342;2024-02-26T01:15:37;99936.63;;;0.67;100.00
75460;BME280;64039;53.060;9.342;2024-02-26T01:18:02;99933.22;;;0.86;100.00
75460;BME280;64039;53.060;9.342;2024-02-26T01:20:28;99930.88;;;0.90;100.00
75460;BME280;64039;53.060;9.342;2024-02-26T01:22:53;99945.00;;;1.00;100.00
75460;BME280;64039;53.060;9.342;2024-02-26T01:25:19;99943.03;;;0.94;100.00
75460;BME280;64039;53.060;9.342;2024-02-26T01:27:44;99941.34;;;0.95;100.00
75460;BME280;64039;53.060;9.342;2024-02-26T01:30:10;99947.47;;;0.99;100.00
75460;BME280;64039;53.060;9.342;2024-02-26T01:32:36;99950.34;;;1.05;100.00
75460;BME280;64039;53.060;9.342;2024-02-26T01:35:01;99947.16;;;1.10;100.00
75460;BME280;64039;53.060;9.342;2024-02-26T01:37:29;99950.59;;;1.11;100.00
75460;BME280;64039;53.060;9.342;2024-02-26T01:39:55;99951.25;;;1.07;100.00
75460;BME280;64039;53.060;9.342;2024-02-26T01:42:21;99947.41;;;0.97;100.00
75460;BME280;64039;53.060;9.342;2024-02-26T01:44:46;99946.72;;;0.82;100.00
75460;BME280;64039;53.060;9.342;2024-02-26T01:47:12;99946.56;;;0.78;100.00
75460;BME280;64039;53.060;9.342;2024-02-26T01:49:38;99945.69;;;0.78;100.00
75460;BME280;64039;53.060;9.342;2024-02-26T01:52:06;99963.31;;;0.72;100.00
75460;BME280;64039;53.060;9.342;2024-02-26T01:54:34;99960.78;;;0.54;100.00
75460;BME280;64039;53.060;9.342;2024-02-26T01:57:01;99963.25;;;0.34;100.00
75460;BME280;64039;53.060;9.342;2024-02-26T01:59:27;99955.06;;;0.41;100.00
75460;BME280;64039;53.060;9.342;2024-02-26T02:01:55;99954.84;;;0.37;100.00
75460;BME280;64039;53.060;9.342;2024-02-26T02:04:23;99954.97;;;0.40;100.00
75460;BME280;64039;53.060;9.342;2024-02-26T02:06:48;99957.78;;;0.44;100.00
75460;BME280;64039;53.060;9.342;2024-02-26T02:09:14;99958.78;;;0.48;100.00
75460;BME280;64039;53.060;9.342;2024-02-26T02:11:40;99965.81;;;0.34;100.00
75460;BME280;64039;53.060;9.342;2024-02-26T02:14:06;99969.84;;;0.47;100.00
75460;BME280;64039;53.060;9.342;2024-02-26T02:16:32;99974.09;;;0.46;100.00
75460;BME280;64039;53.060;9.342;2024-02-26T02:18:58;99974.31;;;0.33;100.00
75460;BME280;64039;53.060;9.342;2024-02-26T02:21:23;99969.53;;;0.41;100.00
75460;BME280;64039;53.060;9.342;2024-02-26T02:23:49;99976.72;;;0.48;100.00
75460;BME280;64039;53.060;9.342;2024-02-26T02:26:15;99977.75;;;0.34;100.00
75460;BME280;64039;53.060;9.342;2024-02-26T02:28:41;99979.19;;;0.28;100.00
75460;BME280;64039;53.060;9.342;2024-02-26T02:31:07;99970.28;;;0.20;100.00
75460;BME280;64039;53.060;9.342;2024-02-26T02:33:34;99982.13;;;0.36;100.00
75460;BME280;64039;53.060;9.342;2024-02-26T02:36:00;99979.66;;;0.38;100.00
75460;BME280;64039;53.060;9.342;2024-02-26T02:38:25;99976.09;;;0.18;100.00
75460;BME280;64039;53.060;9.342;2024-02-26T02:40:54;99978.91;;;0.06;100.00
75460;BME280;64039;53.060;9.342;2024-02-26T02:43:19;99976.00;;;-0.02;100.00
75460;BME280;64039;53.060;9.342;2024-02-26T02:45:45;99975.44;;;0.04;100.00
75460;BME280;64039;53.060;9.342;2024-02-26T02:48:11;99983.75;;;-0.01;100.00
75460;BME280;64039;53.060;9.342;2024-02-26T02:50:36;99987.16;;;0.17;100.00
75460;BME280;64039;53.060;9.342;2024-02-26T02:53:01;99981.06;;;0.14;100.00
75460;BME280;64039;53.060;9.342;2024-02-26T02:55:27;99982.03;;;0.17;100.00
75460;BME280;64039;53.060;9.342;2024-02-26T02:57:53;99987.72;;;0.11;100.00
75460;BME280;64039;53.060;9.342;2024-02-26T03:00:18;99980.31;;;-0.01;100.00
75460;BME280;64039;53.060;9.342;2024-02-26T03:02:44;99984.13;;;0.07;100.00
75460;BME280;64039;53.060;9.342;2024-02-26T03:05:10;99983.88;;;0.19;100.00
75460;BME280;64039;53.060;9.342;2024-02-26T03:07:35;99984.66;;;0.18;100.00
75460;BME280;64039;53.060;9.342;2024-02-26T03:10:01;99984.13;;;0.07;100.00
75460;BME280;64039;53.060;9.342;2024-02-26T03:12:26;99983.06;;;0.20;100.00
75460;BME280;64039;53.060;9.342;2024-02-26T03:14:53;99987.41;;;0.39;100.00
75460;BME280;64039;53.060;9.342;2024-02-26T03:17:20;99989.72;;;0.35;100.00
75460;BME280;64039;53.060;9.342;2024-02-26T03:19:46;99995.94;;;0.22;100.00
75460;BME280;64039;53.060;9.342;2024-02-26T03:22:12;99990.47;;;0.32;100.00
75460;BME280;64039;53.060;9.342;2024-02-26T03:24:38;99993.81;;;0.31;100.00
75460;BME280;64039;53.060;9.342;2024-02-26T03:27:04;99996.66;;;0.19;100.00
75460;BME280;64039;53.060;9.342;2024-02-26T03:29:37;99995.38;;;0.45;100.00
75460;BME280;64039;53.060;9.342;2024-02-26T03:32:03;100000.22;;;0.57;100.00
75460;BME280;64039;53.060;9.342;2024-02-26T03:34:28;100005.19;;;0.54;100.00
75460;BME280;64039;53.060;9.342;2024-02-26T03:36:55;100005.84;;;0.68;100.00
75460;BME280;64039;53.060;9.342;2024-02-26T03:39:21;100018.41;;;0.63;100.00
75460;BME280;64039;53.060;9.342;2024-02-26T03:41:47;100015.13;;;0.84;100.00
75460;BME280;64039;53.060;9.342;2024-02-26T03:44:13;100018.09;;;0.92;100.00
75460;BME280;64039;53.060;9.342;2024-02-26T03:46:38;100025.91;;;0.77;100.00
75460;BME280;64039;53.060;9.342;2024-02-26T03:49:04;100032.63;;;0.57;100.00
75460;BME280;64039;53.060;9.342;2024-02-26T03:51:29;100037.06;;;0.43;100.00
75460;BME280;64039;53.060;9.342;2024-02-26T03:53:57;100043.34;;;0.31;100.00
75460;BME280;64039;53.060;9.342;2024-02-26T03:56:23;100042.56;;;0.16;100.00
75460;BME280;64039;53.060;9.342;2024-02-26T03:58:49;100046.66;;;0.12;100.00
75460;BME280;64039;53.060;9.342;2024-02-26T04:01:14;100050.06;;;0.13;100.00
75460;BME280;64039;53.060;9.342;2024-02-26T04:03:40;100047.16;;;0.05;100.00
75460;BME280;64039;53.060;9.342;2024-02-26T04:06:08;100056.41;;;0.03;100.00
75460;BME280;64039;53.060;9.342;2024-02-26T04:08:35;100049.47;;;0.01;100.00
75460;BME280;64039;53.060;9.342;2024-02-26T04:11:00;100050.19;;;-0.19;100.00
75460;BME280;64039;53.060;9.342;2024-02-26T04:13:26;100052.59;;;-0.22;100.00
75460;BME280;64039;53.060;9.342;2024-02-26T04:15:51;100048.75;;;-0.13;100.00
75460;BME280;64039;53.060;9.342;2024-02-26T04:18:17;100046.22;;;0.21;100.00
75460;BME280;64039;53.060;9.342;2024-02-26T04:20:42;100051.69;;;0.27;100.00
75460;BME280;64039;53.060;9.342;2024-02-26T04:23:07;100062.22;;;0.34;100.00
75460;BME280;64039;53.060;9.342;2024-02-26T04:25:33;100059.88;;;0.38;100.00
75460;BME280;64039;53.060;9.342;2024-02-26T04:27:58;100061.22;;;0.48;100.00
75460;BME280;64039;53.060;9.342;2024-02-26T04:30:24;100060.34;;;0.47;100.00
75460;BME280;64039;53.060;9.342;2024-02-26T04:32:49;100067.69;;;0.58;100.00
75460;BME280;64039;53.060;9.342;2024-02-26T04:35:14;100067.81;;;0.61;100.00
75460;BME280;64039;53.060;9.342;2024-02-26T04:37:40;100069.00;;;0.68;100.00
75460;BME280;64039;53.060;9.342;2024-02-26T04:40:06;100069.06;;;0.69;100.00
75460;BME280;64039;53.060;9.342;2024-02-26T04:42:31;100067.47;;;0.71;100.00
75460;BME280;64039;53.060;9.342;2024-02-26T04:44:56;100069.28;;;0.74;100.00
75460;BME280;64039;53.060;9.342;2024-02-26T04:47:22;100073.31;;;0.69;100.00
75460;BME280;64039;53.060;9.342;2024-02-26T04:49:50;100072.06;;;0.60;100.00
75460;BME280;64039;53.060;9.342;2024-02-26T04:52:16;100073.03;;;0.62;100.00
75460;BME280;64039;53.060;9.342;2024-02-26T04:54:41;100066.50;;;0.69;100.00
75460;BME280;64039;53.060;9.342;2024-02-26T04:57:07;100072.31;;;0.83;100.00
75460;BME280;64039;53.060;9.342;2024-02-26T04:59:32;100077.50;;;0.85;100.00
75460;BME280;64039;53.060;9.342;2024-02-26T05:01:58;100079.53;;;0.74;100.00
75460;BME280;64039;53.060;9.342;2024-02-26T05:04:23;100081.00;;;0.87;100.00
75460;BME280;64039;53.060;9.342;2024-02-26T05:06:48;100080.16;;;0.86;100.00
75460;BME280;64039;53.060;9.342;2024-02-26T05:09:14;100086.94;;;0.86;100.00
75460;BME280;64039;53.060;9.342;2024-02-26T05:11:39;100099.91;;;0.71;100.00
75460;BME280;64039;53.060;9.342;2024-02-26T05:14:05;100097.13;;;0.84;100.00
75460;BME280;64039;53.060;9.342;2024-02-26T05:16:30;100106.41;;;0.82;100.00
75460;BME280;64039;53.060;9.342;2024-02-26T05:18:57;100107.16;;;0.80;100.00
75460;BME280;64039;53.060;9.342;2024-02-26T05:21:22;100106.97;;;0.76;100.00
75460;BME280;64039;53.060;9.342;2024-02-26T05:23:48;100104.41;;;0.76;100.00
75460;BME280;64039;53.060;9.342;2024-02-26T05:26:22;100108.63;;;0.74;100.00
75460;BME280;64039;53.060;9.342;2024-02-26T05:28:48;100100.56;;;0.85;100.00
75460;BME280;64039;53.060;9.342;2024-02-26T05:31:14;100112.16;;;0.94;100.00
75460;BME280;64039;53.060;9.342;2024-02-26T05:33:40;100110.38;;;0.93;100.00
75460;BME280;64039;53.060;9.342;2024-02-26T05:36:06;100111.75;;;0.87;100.00
75460;BME280;64039;53.060;9.342;2024-02-26T05:38:31;100114.25;;;0.85;100.00
75460;BME280;64039;53.060;9.342;2024-02-26T05:40:58;100112.72;;;0.89;100.00
75460;BME280;64039;53.060;9.342;2024-02-26T05:43:24;100112.25;;;0.61;100.00
75460;BME280;64039;53.060;9.342;2024-02-26T05:45:50;100116.06;;;0.70;100.00
75460;BME280;64039;53.060;9.342;2024-02-26T05:48:15;100115.13;;;0.86;100.00
75460;BME280;64039;53.060;9.342;2024-02-26T05:50:46;100113.28;;;0.83;100.00
75460;BME280;64039;53.060;9.342;2024-02-26T05:53:11;100113.47;;;0.86;100.00
75460;BME280;64039;53.060;9.342;2024-02-26T05:55:41;100114.09;;;0.82;100.00
75460;BME280;64039;53.060;9.342;2024-02-26T05:58:07;100120.81;;;0.80;100.00
75460;BME280;64039;53.060;9.342;2024-02-26T06:00:33;100116.59;;;0.81;100.00
75460;BME280;64039;53.060;9.342;2024-02-26T06:03:02;100118.66;;;0.88;100.00
75460;BME280;64039;53.060;9.342;2024-02-26T06:05:27;100120.34;;;0.87;100.00
75460;BME280;64039;53.060;9.342;2024-02-26T06:07:53;100120.03;;;0.81;100.00
75460;BME280;64039;53.060;9.342;2024-02-26T06:10:20;100127.81;;;0.83;100.00
75460;BME280;64039;53.060;9.342;2024-02-26T06:12:47;100127.13;;;0.87;100.00
75460;BME280;64039;53.060;9.342;2024-02-26T06:15:12;100133.22;;;0.89;100.00
75460;BME280;64039;53.060;9.342;2024-02-26T06:17:38;100140.56;;;0.99;100.00
75460;BME280;64039;53.060;9.342;2024-02-26T06:20:04;100138.00;;;0.99;100.00
75460;BME280;64039;53.060;9.342;2024-02-26T06:22:31;100142.38;;;1.02;100.00
75460;BME280;64039;53.060;9.342;2024-02-26T06:24:57;100136.97;;;1.14;100.00
75460;BME280;64039;53.060;9.342;2024-02-26T06:27:23;100143.88;;;1.15;100.00
75460;BME280;64039;53.060;9.342;2024-02-26T06:29:49;100147.06;;;1.10;100.00
75460;BME280;64039;53.060;9.342;2024-02-26T06:32:14;100152.59;;;1.18;100.00
75460;BME280;64039;53.060;9.342;2024-02-26T06:34:40;100150.66;;;1.14;100.00
75460;BME280;64039;53.060;9.342;2024-02-26T06:37:07;100155.94;;;1.17;100.00
75460;BME280;64039;53.060;9.342;2024-02-26T06:39:33;100154.47;;;1.22;100.00
75460;BME280;64039;53.060;9.342;2024-02-26T06:41:58;100161.44;;;1.25;100.00
75460;BME280;64039;53.060;9.342;2024-02-26T06:44:27;100157.19;;;1.25;100.00
75460;BME280;64039;53.060;9.342;2024-02-26T06:47:00;100164.72;;;1.22;100.00
75460;BME280;64039;53.060;9.342;2024-02-26T06:49:26;100170.47;;;1.35;100.00
75460;BME280;64039;53.060;9.342;2024-02-26T06:51:52;100173.19;;;1.38;100.00
75460;BME280;64039;53.060;9.342;2024-02-26T06:54:18;100174.63;;;1.33;100.00
75460;BME280;64039;53.060;9.342;2024-02-26T06:56:43;100186.94;;;1.40;100.00
75460;BME280;64039;53.060;9.342;2024-02-26T06:59:09;100188.56;;;1.38;100.00
75460;BME280;64039;53.060;9.342;2024-02-26T07:01:34;100195.22;;;1.52;100.00
75460;BME280;64039;53.060;9.342;2024-02-26T07:04:00;100190.22;;;1.55;100.00
75460;BME280;64039;53.060;9.342;2024-02-26T07:06:27;100204.16;;;1.61;100.00
75460;BME280;64039;53.060;9.342;2024-02-26T07:08:52;100195.34;;;1.73;100.00
75460;BME280;64039;53.060;9.342;2024-02-26T07:11:18;100200.13;;;1.66;100.00
75460;BME280;64039;53.060;9.342;2024-02-26T07:13:45;100205.75;;;1.77;100.00
75460;BME280;64039;53.060;9.342;2024-02-26T07:16:11;100206.59;;;1.76;100.00
75460;BME280;64039;53.060;9.342;2024-02-26T07:18:37;100213.66;;;1.81;100.00
75460;BME280;64039;53.060;9.342;2024-02-26T07:21:02;100214.84;;;1.88;100.00
75460;BME280;64039;53.060;9.342;2024-02-26T07:23:29;100216.22;;;1.81;100.00
75460;BME280;64039;53.060;9.342;2024-02-26T07:25:54;100221.88;;;1.74;100.00
75460;BME280;64039;53.060;9.342;2024-02-26T07:28:19;100216.22;;;1.81;100.00
75460;BME280;64039;53.060;9.342;2024-02-26T07:30:45;100214.63;;;1.83;100.00
75460;BME280;64039;53.060;9.342;2024-02-26T07:33:10;100223.66;;;1.75;100.00
75460;BME280;64039;53.060;9.342;2024-02-26T07:35:36;100227.91;;;1.75;100.00
75460;BME280;64039;53.060;9.342;2024-02-26T07:38:04;100227.91;;;1.75;100.00
75460;BME280;64039;53.060;9.342;2024-02-26T07:40:30;100233.47;;;1.84;100.00
75460;BME280;64039;53.060;9.342;2024-02-26T07:42:55;100229.44;;;1.89;100.00
75460;BME280;64039;53.060;9.342;2024-02-26T07:45:21;100236.97;;;2.04;100.00
75460;BME280;64039;53.060;9.342;2024-02-26T07:47:47;100243.56;;;2.17;100.00
75460;BME280;64039;53.060;9.342;2024-02-26T07:50:12;100244.63;;;2.22;100.00
75460;BME280;64039;53.060;9.342;2024-02-26T07:52:38;100248.59;;;2.15;100.00
75460;BME280;64039;53.060;9.342;2024-02-26T07:55:04;100251.47;;;2.22;100.00
75460;BME280;64039;53.060;9.342;2024-02-26T07:57:31;100251.69;;;2.26;100.00
75460;BME280;64039;53.060;9.342;2024-02-26T07:59:56;100251.06;;;2.32;100.00
75460;BME280;64039;53.060;9.342;2024-02-26T08:02:21;100249.00;;;2.43;100.00
75460;BME280;64039;53.060;9.342;2024-02-26T08:04:47;100247.03;;;2.37;100.00
75460;BME280;64039;53.060;9.342;2024-02-26T08:07:12;100247.09;;;2.39;100.00
75460;BME280;64039;53.060;9.342;2024-02-26T08:09:38;100251.06;;;2.32;100.00
75460;BME280;64039;53.060;9.342;2024-02-26T08:12:04;100252.00;;;2.34;100.00
75460;BME280;64039;53.060;9.342;2024-02-26T08:14:29;100255.47;;;2.34;100.00
75460;BME280;64039;53.060;9.342;2024-02-26T08:16:54;100252.91;;;2.16;100.00
75460;BME280;64039;53.060;9.342;2024-02-26T08:19:20;100254.09;;;2.23;100.00
75460;BME280;64039;53.060;9.342;2024-02-26T08:21:46;100260.91;;;2.23;100.00
75460;BME280;64039;53.060;9.342;2024-02-26T08:24:11;100252.06;;;2.35;100.00
75460;BME280;64039;53.060;9.342;2024-02-26T08:26:36;100256.06;;;2.29;100.00
75460;BME280;64039;53.060;9.342;2024-02-26T08:29:02;100251.63;;;2.07;100.00
75460;BME280;64039;53.060;9.342;2024-02-26T08:31:27;100263.84;;;2.30;100.00
75460;BME280;64039;53.060;9.342;2024-02-26T08:33:53;100259.06;;;2.38;100.00
75460;BME280;64039;53.060;9.342;2024-02-26T08:36:18;100257.16;;;2.34;100.00
75460;BME280;64039;53.060;9.342;2024-02-26T08:38:44;100256.59;;;2.41;100.00
75460;BME280;64039;53.060;9.342;2024-02-26T08:41:09;100257.22;;;2.55;100.00
75460;BME280;64039;53.060;9.342;2024-02-26T08:43:35;100256.75;;;2.44;100.00
75460;BME280;64039;53.060;9.342;2024-02-26T08:46:01;100269.00;;;2.50;100.00
75460;BME280;64039;53.060;9.342;2024-02-26T08:48:26;100272.50;;;2.52;100.00
75460;BME280;64039;53.060;9.342;2024-02-26T08:50:52;100269.94;;;2.52;100.00
75460;BME280;64039;53.060;9.342;2024-02-26T08:53:17;100270.44;;;2.63;100.00
75460;BME280;64039;53.060;9.342;2024-02-26T08:55:42;100272.09;;;2.62;100.00
75460;BME280;64039;53.060;9.342;2024-02-26T08:58:08;100276.91;;;2.74;100.00
75460;BME280;64039;53.060;9.342;2024-02-26T09:00:33;100275.97;;;2.72;100.00
75460;BME280;64039;53.060;9.342;2024-02-26T09:02:59;100278.47;;;2.90;100.00
75460;BME280;64039;53.060;9.342;2024-02-26T09:05:24;100275.88;;;3.10;100.00
75460;BME280;64039;53.060;9.342;2024-02-26T09:07:50;100279.56;;;3.17;100.00
75460;BME280;64039;53.060;9.342;2024-02-26T09:10:17;100288.00;;;3.34;100.00
75460;BME280;64039;53.060;9.342;2024-02-26T09:12:42;100282.88;;;3.34;100.00
75460;BME280;64039;53.060;9.342;2024-02-26T09:15:08;100279.97;;;3.47;100.00
75460;BME280;64039;53.060;9.342;2024-02-26T09:17:34;100288.84;;;3.54;100.00
75460;BME280;64039;53.060;9.342;2024-02-26T09:19:59;100293.59;;;3.66;100.00
75460;BME280;64039;53.060;9.342;2024-02-26T09:22:25;100297.75;;;3.62;100.00
75460;BME280;64039;53.060;9.342;2024-02-26T09:24:50;100300.91;;;3.76;100.00
75460;BME280;64039;53.060;9.342;2024-02-26T09:27:17;100302.94;;;3.85;100.00
75460;BME280;64039;53.060;9.342;2024-02-26T09:29:43;100304.03;;;3.90;100.00
75460;BME280;64039;53.060;9.342;2024-02-26T09:32:08;100309.69;;;4.04;100.00
75460;BME280;64039;53.060;9.342;2024-02-26T09:34:34;100299.34;;;4.25;100.00
75460;BME280;64039;53.060;9.342;2024-02-26T09:36:59;100303.94;;;4.32;100.00
75460;BME280;64039;53.060;9.342;2024-02-26T09:39:26;100312.09;;;4.43;100.00
75460;BME280;64039;53.060;9.342;2024-02-26T09:41:53;100310.53;;;4.48;100.00
75460;BME280;64039;53.060;9.342;2024-02-26T09:44:19;100314.59;;;4.64;100.00
75460;BME280;64039;53.060;9.342;2024-02-26T09:46:48;100313.81;;;4.67;100.00
75460;BME280;64039;53.060;9.342;2024-02-26T09:49:18;100315.91;;;4.77;100.00
75460;BME280;64039;53.060;9.342;2024-02-26T09:51:45;100316.78;;;4.78;100.00
75460;BME280;64039;53.060;9.342;2024-02-26T09:54:12;100323.09;;;4.86;100.00
75460;BME280;64039;53.060;9.342;2024-02-26T09:56:39;100321.66;;;4.94;100.00
75460;BME280;64039;53.060;9.342;2024-02-26T09:59:12;100323.38;;;4.94;100.00
75460;BME280;64039;53.060;9.342;2024-02-26T10:01:42;100325.53;;;5.06;100.00
75460;BME280;64039;53.060;9.342;2024-02-26T10:04:08;100329.53;;;4.97;100.00
75460;BME280;64039;53.060;9.342;2024-02-26T10:06:36;100327.03;;;5.00;100.00
75460;BME280;64039;53.060;9.342;2024-02-26T10:09:02;100335.69;;;5.01;100.00
75460;BME280;64039;53.060;9.342;2024-02-26T10:11:32;100330.34;;;4.96;100.00
75460;BME280;64039;53.060;9.342;2024-02-26T10:13:57;100333.09;;;5.01;100.00
75460;BME280;64039;53.060;9.342;2024-02-26T10:16:24;100340.84;;;5.01;100.00
75460;BME280;64039;53.060;9.342;2024-02-26T10:18:52;100341.00;;;5.06;100.00
75460;BME280;64039;53.060;9.342;2024-02-26T10:21:21;100338.63;;;5.12;100.00
75460;BME280;64039;53.060;9.342;2024-02-26T10:23:48;100339.50;;;5.12;100.00
75460;BME280;64039;53.060;9.342;2024-02-26T10:26:14;100346.25;;;5.09;100.00
75460;BME280;64039;53.060;9.342;2024-02-26T10:28:44;100348.94;;;5.12;100.00
75460;BME280;64039;53.060;9.342;2024-02-26T10:31:11;100349.56;;;5.29;100.00
75460;BME280;64039;53.060;9.342;2024-02-26T10:33:37;100350.53;;;5.58;100.00
75460;BME280;64039;53.060;9.342;2024-02-26T10:36:06;100352.91;;;5.78;100.00
75460;BME280;64039;53.060;9.342;2024-02-26T10:38:33;100349.13;;;5.66;100.00
75460;BME280;64039;53.060;9.342;2024-02-26T10:40:59;100349.81;;;5.88;100.00
75460;BME280;64039;53.060;9.342;2024-02-26T10:43:27;100354.34;;;5.95;100.00
75460;BME280;64039;53.060;9.342;2024-02-26T10:45:55;100355.09;;;5.91;100.00
75460;BME280;64039;53.060;9.342;2024-02-26T10:48:21;100352.28;;;5.85;100.00
75460;BME280;64039;53.060;9.342;2024-02-26T10:50:47;100350.34;;;5.52;100.00
75460;BME280;64039;53.060;9.342;2024-02-26T10:53:16;100358.44;;;5.89;100.00
75460;BME280;64039;53.060;9.342;2024-02-26T10:55:46;100359.88;;;6.06;100.00
75460;BME280;64039;53.060;9.342;2024-02-26T10:58:13;100361.94;;;6.17;100.00
75460;BME280;64039;53.060;9.342;2024-02-26T11:00:39;100354.78;;;6.35;100.00
75460;BME280;64039;53.060;9.342;2024-02-26T11:03:06;100365.59;;;6.51;100.00
75460;BME280;64039;53.060;9.342;2024-02-26T11:05:33;100364.22;;;6.35;100.00
75460;BME280;64039;53.060;9.342;2024-02-26T11:07:59;100363.31;;;6.61;100.00
75460;BME280;64039;53.060;9.342;2024-02-26T11:10:26;100363.00;;;6.80;100.00
75460;BME280;64039;53.060;9.342;2024-02-26T11:12:54;100359.31;;;6.71;100.00
75460;BME280;64039;53.060;9.342;2024-02-26T11:15:20;100356.84;;;6.76;100.00
75460;BME280;64039;53.060;9.342;2024-02-26T11:17:46;100361.81;;;6.99;100.00
75460;BME280;64039;53.060;9.342;2024-02-26T11:20:11;100360.34;;;7.08;100.00
75460;BME280;64039;53.060;9.342;2024-02-26T11:22:38;100363.50;;;7.29;100.00
75460;BME280;64039;53.060;9.342;2024-02-26T11:25:04;100366.25;;;7.35;100.00
75460;BME280;64039;53.060;9.342;2024-02-26T11:27:35;100366.31;;;7.36;100.00
75460;BME280;64039;53.060;9.342;2024-02-26T11:30:02;100359.88;;;7.55;100.00
75460;BME280;64039;53.060;9.342;2024-02-26T11:32:30;100364.59;;;7.70;100.00
75460;BME280;64039;53.060;9.342;2024-02-26T11:34:58;100371.91;;;7.87;100.00
75460;BME280;64039;53.060;9.342;2024-02-26T11:37:24;100359.06;;;7.57;100.00
75460;BME280;64039;53.060;9.342;2024-02-26T11:39:51;100359.03;;;7.55;100.00
75460;BME280;64039;53.060;9.342;2024-02-26T11:42:17;100357.56;;;7.66;100.00
75460;BME280;64039;53.060;9.342;2024-02-26T11:44:43;100351.19;;;7.53;100.00
75460;BME280;64039;53.060;9.342;2024-02-26T11:47:13;100357.50;;;7.63;100.00
75460;BME280;64039;53.060;9.342;2024-02-26T11:49:39;100358.72;;;7.78;100.00
75460;BME280;64039;53.060;9.342;2024-02-26T11:52:08;100362.53;;;7.92;100.00
75460;BME280;64039;53.060;9.342;2024-02-26T11:54:47;100359.81;;;7.87;100.00
75460;BME280;64039;53.060;9.342;2024-02-26T11:57:29;100363.63;;;8.02;100.00
75460;BME280;64039;53.060;9.342;2024-02-26T12:00:21;100365.16;;;7.94;100.00
75460;BME280;64039;53.060;9.342;2024-02-26T12:02:55;100374.28;;;7.78;100.00
75460;BME280;64039;53.060;9.342;2024-02-26T12:05:26;100369.47;;;7.60;100.00
75460;BME280;64039;53.060;9.342;2024-02-26T12:08:04;100375.59;;;7.62;100.00
75460;BME280;64039;53.060;9.342;2024-02-26T12:10:40;100376.47;;;7.62;100.00
75460;BME280;64039;53.060;9.342;2024-02-26T12:13:11;100382.28;;;7.53;100.00
75460;BME280;64039;53.060;9.342;2024-02-26T12:15:41;100377.44;;;7.66;100.00
75460;BME280;64039;53.060;9.342;2024-02-26T12:18:08;100380.59;;;7.89;100.00
75460;BME280;64039;53.060;9.342;2024-02-26T12:20:36;100383.13;;;7.86;100.00
75460;BME280;64039;53.060;9.342;2024-02-26T12:23:02;100382.28;;;7.87;100.00
75460;BME280;64039;53.060;9.342;2024-02-26T12:25:32;100380.81;;;7.63;100.00
75460;BME280;64039;53.060;9.342;2024-02-26T12:27:58;100388.06;;;7.77;100.00
75460;BME280;64039;53.060;9.342;2024-02-26T12:30:25;100391.28;;;8.01;100.00
75460;BME280;64039;53.060;9.342;2024-02-26T12:32:55;100387.69;;;7.96;100.00
75460;BME280;64039;53.060;9.342;2024-02-26T12:35:26;100388.91;;;8.11;100.00
75460;BME280;64039;53.060;9.342;2024-02-26T12:37:53;100386.31;;;8.11;100.00
75460;BME280;64039;53.060;9.342;2024-02-26T12:40:19;100398.31;;;8.06;100.00
75460;BME280;64039;53.060;9.342;2024-02-26T12:42:45;100400.66;;;7.96;100.00
75460;BME280;64039;53.060;9.342;2024-02-26T12:45:11;100409.19;;;7.92;100.00
75460;BME280;64039;53.060;9.342;2024-02-26T12:47:45;100403.69;;;7.80;100.00